createdAt,value
2023-03-22T00:04:16.544Z,9.25
2023-03-22T00:09:18.255Z,7.82
2023-03-22T00:14:19.840Z,8.43
2023-03-22T00:19:21.392Z,7.72
2023-03-22T00:24:22.979Z,7.30
2023-03-22T00:29:24.571Z,7.93
2023-03-22T00:34:31.704Z,9.25
2023-03-22T00:39:33.290Z,7.80
2023-03-22T00:44:34.861Z,8.45
2023-03-22T00:49:37.480Z,6.35
2023-03-22T00:54:39.184Z,6.70
2023-03-22T00:59:42.819Z,6.35
2023-03-22T01:04:47.992Z,6.63
2023-03-22T01:09:50.680Z,6.32
2023-03-22T01:14:52.250Z,5.88
2023-03-22T01:19:53.870Z,5.85
2023-03-22T01:24:55.560Z,4.65
2023-03-22T01:29:57.346Z,7.28
2023-03-22T01:34:58.981Z,7.00
2023-03-22T01:40:04.663Z,6.28
2023-03-22T01:45:13.284Z,7.15
2023-03-22T01:50:17.263Z,6.47
2023-03-22T01:55:22.846Z,6.47
2023-03-22T02:00:31.946Z,7.55
2023-03-22T02:05:54.576Z,5.03
2023-03-22T02:11:00.682Z,7.10
2023-03-22T02:16:35.637Z,6.50
2023-03-22T02:22:31.257Z,6.25
2023-03-22T02:27:49.684Z,5.72
2023-03-22T02:33:13.418Z,5.97
2023-03-22T02:38:28.932Z,4.47
2023-03-22T02:44:04.137Z,7.53
2023-03-22T02:49:11.885Z,4.80
2023-03-22T02:54:20.736Z,6.05
2023-03-22T02:59:24.882Z,3.80
2023-03-22T03:04:32.769Z,6.05
2023-03-22T03:09:35.852Z,6.18
2023-03-22T03:14:37.402Z,7.57
2023-03-22T03:20:09.356Z,6.18
2023-03-22T03:25:38.435Z,3.55
2023-03-22T03:30:52.838Z,8.30
2023-03-22T03:36:05.166Z,5.03
2023-03-22T03:41:18.033Z,4.25
2023-03-22T03:46:20.429Z,4.90
2023-03-22T03:51:21.961Z,14.35
2023-03-22T03:56:23.723Z,8.32
2023-03-22T04:01:28.463Z,5.70
2023-03-22T04:06:40.441Z,18.83
2023-03-22T04:11:46.835Z,10.65
2023-03-22T04:16:50.118Z,10.07
2023-03-22T04:21:57.493Z,8.05
2023-03-22T04:26:59.126Z,7.63
2023-03-22T04:32:05.574Z,7.47
2023-03-22T04:37:15.517Z,9.73
2023-03-22T04:42:30.303Z,10.20
2023-03-22T04:47:47.454Z,6.82
2023-03-22T04:52:50.028Z,6.68
2023-03-22T04:57:54.656Z,5.72
2023-03-22T05:02:58.201Z,6.25
2023-03-22T05:08:15.867Z,5.75
2023-03-22T05:13:22.946Z,5.05
2023-03-22T05:18:26.279Z,4.05
2023-03-22T05:23:30.323Z,4.10
2023-03-22T05:28:32.474Z,4.90
2023-03-22T05:33:55.219Z,5.72
2023-03-22T05:38:59.716Z,5.65
2023-03-22T05:44:01.503Z,4.90
2023-03-22T05:49:03.799Z,7.47
2023-03-22T05:54:07.586Z,11.18
2023-03-22T05:59:14.689Z,11.88
2023-03-22T06:04:16.289Z,11.60
2023-03-22T06:09:32.932Z,6.22
2023-03-22T06:14:36.557Z,6.28
2023-03-22T06:19:46.273Z,5.22
2023-03-22T06:24:49.837Z,6.47
2023-03-22T06:29:57.980Z,5.80
2023-03-22T06:35:00.733Z,6.47
2023-03-22T06:40:03.908Z,6.25
2023-03-22T06:45:06.328Z,5.78
2023-03-22T06:50:10.951Z,5.13
2023-03-22T06:55:40.002Z,6.03
2023-03-22T07:00:57.177Z,9.00
2023-03-22T07:06:04.229Z,5.18
2023-03-22T07:11:07.800Z,6.25
2023-03-22T07:16:10.370Z,5.50
2023-03-22T07:21:26.056Z,7.53
2023-03-22T07:26:32.411Z,8.23
2023-03-22T07:31:36.598Z,5.70
2023-03-22T07:36:57.006Z,8.65
2023-03-22T07:41:58.830Z,7.30
2023-03-22T07:47:00.399Z,5.32
2023-03-22T07:52:14.881Z,3.65
2023-03-22T07:57:16.816Z,6.65
2023-03-22T08:02:23.776Z,5.63
2023-03-22T08:07:30.284Z,6.30
2023-03-22T08:12:33.186Z,4.13
2023-03-22T08:17:44.695Z,4.68
2023-03-22T08:22:52.296Z,4.20
2023-03-22T08:27:53.859Z,3.78
2023-03-22T08:32:56.966Z,4.00
2023-03-22T08:37:58.710Z,4.78
2023-03-22T08:43:07.803Z,2.87
2023-03-22T08:48:10.497Z,3.33
2023-03-22T08:53:31.440Z,3.40
2023-03-22T08:58:53.743Z,4.45
2023-03-22T09:04:11.330Z,4.75
2023-03-22T09:09:13.104Z,4.78
2023-03-22T09:14:16.175Z,3.95
2023-03-22T09:19:18.024Z,4.15
2023-03-22T09:24:20.637Z,3.25
2023-03-22T09:29:27.434Z,2.72
2023-03-22T09:34:29.197Z,3.33
2023-03-22T09:39:31.855Z,2.20
2023-03-22T09:44:43.652Z,3.85
2023-03-22T09:50:01.433Z,2.97
2023-03-22T09:55:03.442Z,2.08
2023-03-22T10:00:18.783Z,0.90
2023-03-22T10:05:35.715Z,6.63
2023-03-22T10:10:41.840Z,2.35
2023-03-22T10:15:53.890Z,2.03
2023-03-22T10:21:05.160Z,1.58
2023-03-22T10:26:09.027Z,1.95
2023-03-22T10:31:17.824Z,1.92
2023-03-22T10:36:23.513Z,1.35
2023-03-22T10:41:27.378Z,1.50
2023-03-22T10:46:35.891Z,1.48
2023-03-22T10:51:41.103Z,2.53
2023-03-22T10:57:02.770Z,2.35
2023-03-22T11:02:04.412Z,2.08
2023-03-22T11:07:06.146Z,1.73
2023-03-22T11:12:13.121Z,3.13
2023-03-22T11:17:22.255Z,3.40
2023-03-22T11:22:39.057Z,1.87
2023-03-22T11:28:04.484Z,2.25
2023-03-22T11:33:17.075Z,1.48
2023-03-22T11:38:39.764Z,2.17
2023-03-22T11:43:48.404Z,1.85
2023-03-22T11:48:52.497Z,1.92
2023-03-22T11:54:01.008Z,3.15
2023-03-22T11:59:09.104Z,2.30
2023-03-22T12:04:15.978Z,1.27
2023-03-22T12:09:35.643Z,1.90
2023-03-22T12:20:07.363Z,1.95
2023-03-22T12:25:14.948Z,2.67
2023-03-22T12:30:25.380Z,2.00
2023-03-22T12:35:31.627Z,3.45
2023-03-22T12:40:38.413Z,4.28
2023-03-22T12:45:45.984Z,3.97
2023-03-22T12:50:56.923Z,2.72
2023-03-22T12:55:59.029Z,2.50
2023-03-22T13:01:23.554Z,3.40
2023-03-22T13:06:33.244Z,2.63
2023-03-22T13:16:59.030Z,2.53
2023-03-22T13:22:41.659Z,1.88
2023-03-22T13:27:53.046Z,2.67
2023-03-22T13:33:09.741Z,3.00
2023-03-22T13:38:26.807Z,1.58
2023-03-22T13:43:33.300Z,3.15
2023-03-22T13:48:47.289Z,4.18
2023-03-22T13:54:30.846Z,1.40
2023-03-22T14:00:11.332Z,4.03
2023-03-22T14:05:22.638Z,7.28
2023-03-22T14:10:49.140Z,1.67
2023-03-22T14:15:54.335Z,3.55
2023-03-22T14:21:00.468Z,1.30
